Latest Weather Observations for Middle Percy Island

IDQ60801

Issued at 2:32 pm EST Thursday 28 July 2016 (issued every 30 minutes, with the page automatically refreshed every 10 minutes)

About weather observations | Map of weather stations | Latest weather observations for QLD | Other Formats
Station Details ID: 200001 Name: MIDDLE PERCY ISLAND Lat: -21.66 Lon: 150.27 Height: 208.7 m
Data from the previous 72 hours. | See also: Recent months at Middle Percy Island
Date/Time
EST
Temp
°C
App
Temp
°C
Dew
Point
°C
Rel
Hum
%
Delta-T
°C
Wind Press
QNH
hPa
Press
MSL
hPa
Rain since
9am
mm
Dir  Spd
km/h
Gust
km/h
Spd
kts
Gust
kts
28/02:30pm 18.5 - - - - SSE 28 43 15 23 1020.8 1020.2 0.0
28/02:00pm 18.8 - - - - SSE 28 37 15 20 1021.0 1020.4 0.0
28/01:30pm 18.9 - - - - SSE 30 39 16 21 1021.3 1020.7 0.0
28/01:00pm 18.9 - - - - SSE 30 39 16 21 1021.4 1020.8 0.0
28/12:30pm 18.9 - - - - SSE 37 52 20 28 1021.6 1021.0 0.0
28/12:00pm 18.9 - - - - SSE 37 48 20 26 1021.9 1021.3 0.0
28/11:30am 19.1 - - - - SSE 33 46 18 25 1022.2 1021.6 0.0
28/11:00am 18.8 - - - - SSE 35 46 19 25 1022.5 1022.0 0.0
28/10:30am 18.8 - - - - SSE 33 46 18 25 1022.7 1022.2 0.0
28/10:00am 18.9 - - - - SSE 33 43 18 23 1023.0 1022.5 0.0
28/09:30am 18.6 - - - - SSE 33 48 18 26 1023.1 1022.6 0.0
28/09:00am 18.5 - - - - SSE 35 46 19 25 1022.8 1022.3 0.0
28/08:30am 18.2 - - - - SSE 33 43 18 23 1022.7 1022.2 0.0
28/08:00am 17.9 - - - - SSE 33 44 18 24 1022.6 1022.1 0.0
28/07:30am 17.8 - - - - SSE 37 48 20 26 1022.0 1021.4 0.0
28/07:00am 17.6 - - - - SSE 35 48 19 26 1021.7 1021.1 0.0
28/06:30am 17.6 - - - - SSE 37 48 20 26 1021.4 1020.8 0.0
28/06:00am 17.7 - - - - SSE 35 44 19 24 1021.0 1020.4 0.0
28/05:30am 17.5 - - - - SSE 35 46 19 25 1021.0 1020.4 0.0
28/05:00am 17.8 - - - - SSE 33 44 18 24 1020.8 1020.2 0.0
28/04:30am 17.8 - - - - SSE 32 43 17 23 1020.7 1020.1 0.0
28/04:00am 18.1 - - - - S 37 46 20 25 1020.6 1020.0 0.0
28/03:30am 18.1 - - - - S 43 52 23 28 1020.7 1020.1 0.0
28/03:00am 18.2 - - - - S 41 52 22 28 1020.8 1020.2 0.0
28/02:30am 18.5 - - - - S 43 54 23 29 1020.8 1020.2 0.0
28/02:00am 18.3 - - - - S 35 46 19 25 1021.1 1020.5 0.0
28/01:30am 18.3 - - - - S 30 37 16 20 1021.5 1020.9 0.0
28/01:00am 18.6 - - - - S 26 35 14 19 1021.6 1021.0 0.0
28/12:30am 18.4 - - - - S 24 32 13 17 1021.8 1021.2 0.0
28/12:00am 18.6 - - - - S 24 30 13 16 1021.6 1021.0 0.0
 
Date/Time
EST
Temp
°C
App
Temp
°C
Dew
Point
°C
Rel
Hum
%
Delta-T
°C
Wind Press
QNH
hPa
Press
MSL
hPa
Rain since
9am
mm
Dir  Spd
km/h
Gust
km/h
Spd
kts
Gust
kts
27/11:30pm 18.8 - - - - S 30 39 16 21 1021.5 1020.9 0.0
27/11:00pm 19.2 - - - - S 28 35 15 19 1021.5 1020.9 0.0
27/10:30pm 19.0 - - - - S 19 26 10 14 1021.5 1020.9 0.0
27/10:00pm 19.3 - - - - S 20 24 11 13 1021.1 1020.5 0.0
27/09:30pm 18.9 - - - - SSE 20 24 11 13 1021.1 1020.5 0.0
27/09:00pm 18.7 - - - - SSE 19 22 10 12 1021.1 1020.5 0.0
27/08:30pm 18.7 - - - - SSE 15 19 8 10 1020.9 1020.3 0.0
27/08:00pm 18.9 - - - - SE 15 19 8 10 1020.7 1020.1 0.0
27/07:30pm 18.8 - - - - ESE 13 17 7 9 1020.4 1019.8 0.0
27/07:00pm 18.8 - - - - ESE 13 17 7 9 1020.1 1019.6 0.0
27/06:30pm 18.6 - - - - ESE 11 15 6 8 1019.7 1019.2 0.0
27/06:00pm 18.9 - - - - ESE 11 15 6 8 1019.5 1019.0 0.0
27/05:30pm 19.1 - - - - ESE 11 15 6 8 1019.3 1018.8 0.0
27/05:00pm 19.7 - - - - SE 13 17 7 9 1019.0 1018.5 0.0
27/04:30pm 20.2 - - - - SE 13 15 7 8 1018.5 1018.0 0.0
27/04:00pm 20.8 - - - - SSE 11 15 6 8 1018.4 1017.9 0.0
27/03:30pm 21.2 - - - - SSE 11 19 6 10 1018.0 1017.4 0.0
27/03:00pm 21.5 - - - - SSE 11 19 6 10 1017.9 1017.3 0.0
27/02:30pm 21.4 - - - - S 15 20 8 11 1017.9 1017.3 0.0
27/02:00pm 21.4 - - - - S 17 22 9 12 1017.9 1017.3 0.0
27/01:30pm 21.4 - - - - S 17 24 9 13 1018.2 1017.7 0.0
27/01:00pm 21.1 - - - - SSE 15 20 8 11 1018.4 1017.9 0.0
27/12:30pm 20.8 - - - - S 19 24 10 13 1018.7 1018.2 0.0
27/12:00pm 20.8 - - - - S 19 24 10 13 1018.9 1018.4 0.0
27/11:30am 21.1 - - - - S 19 26 10 14 1019.3 1018.8 0.0
27/11:00am 21.0 - - - - S 17 24 9 13 1019.6 1019.1 0.0
27/10:30am 20.4 - - - - S 15 20 8 11 1019.8 1019.3 0.0
27/10:00am 20.8 - - - - SSE 11 17 6 9 1020.0 1019.5 0.0
27/09:30am 20.6 - - - - SSE 11 17 6 9 1020.2 1019.7 0.0
27/09:00am 19.9 - - - - S 13 19 7 10 1020.4 1019.8 0.0
27/08:30am 19.6 - - - - SSE 11 15 6 8 1020.2 1019.7 0.0
27/08:00am 19.3 - - - - SSE 11 13 6 7 1020.0 1019.5 0.0
27/07:30am 18.8 - - - - SE 11 13 6 7 1019.7 1019.2 0.0
27/07:00am 18.4 - - - - SSE 13 15 7 8 1019.5 1019.0 0.0
27/06:30am 18.5 - - - - S 15 19 8 10 1019.3 1018.8 0.0
27/06:00am 18.6 - - - - S 17 22 9 12 1019.0 1018.5 0.0
27/05:30am 18.8 - - - - S 19 20 10 11 1019.0 1018.5 0.0
27/05:00am 18.5 - - - - S 13 19 7 10 1018.8 1018.3 0.0
27/04:30am 18.6 - - - - SSE 11 15 6 8 1018.6 1018.1 0.0
27/04:00am 18.6 - - - - SSE 13 15 7 8 1018.6 1018.1 0.0
27/03:30am 18.7 - - - - SSE 13 15 7 8 1018.6 1018.1 0.0
27/03:00am 18.9 - - - - SSE 13 17 7 9 1018.6 1018.1 0.0
27/02:30am 18.8 - - - - SE 13 17 7 9 1018.7 1018.2 0.0
27/02:00am 19.0 - - - - SE 15 19 8 10 1018.9 1018.4 0.0
27/01:30am 19.0 - - - - SE 13 17 7 9 1019.2 1018.7 0.0
27/01:00am 19.1 - - - - SE 13 17 7 9 1019.3 1018.8 0.0
27/12:30am 19.1 - - - - SE 15 20 8 11 1019.2 1018.7 0.0
27/12:00am 19.1 - - - - SE 15 22 8 12 1019.2 1018.7 0.0
 
Date/Time
EST
Temp
°C
App
Temp
°C
Dew
Point
°C
Rel
Hum
%
Delta-T
°C
Wind Press
QNH
hPa
Press
MSL
hPa
Rain since
9am
mm
Dir  Spd
km/h
Gust
km/h
Spd
kts
Gust
kts
26/11:30pm 19.2 - - - - SE 19 26 10 14 1019.1 1018.6 0.0
26/11:00pm 19.3 - - - - SE 19 24 10 13 1019.1 1018.6 0.0
26/10:30pm 19.2 - - - - SE 19 24 10 13 1019.0 1018.5 0.0
26/10:00pm 19.1 - - - - SE 19 24 10 13 1019.0 1018.5 0.0
26/09:30pm 18.9 - - - - ESE 15 19 8 10 1018.9 1018.4 0.0
26/09:00pm 19.0 - - - - E 15 20 8 11 1018.8 1018.3 0.0
26/08:30pm 18.8 - - - - ESE 13 19 7 10 1018.7 1018.2 0.0
26/08:00pm 18.9 - - - - ESE 17 22 9 12 1018.7 1018.2 0.0
26/07:30pm 18.8 - - - - ESE 15 20 8 11 1018.6 1018.1 0.0
26/07:00pm 18.8 - - - - ESE 15 20 8 11 1018.3 1017.8 0.0
26/06:30pm 18.8 - - - - ESE 17 22 9 12 1017.9 1017.3 0.0
26/06:00pm 18.8 - - - - SE 17 22 9 12 1017.7 1017.1 0.0
26/05:30pm 18.9 - - - - SE 19 26 10 14 1017.4 1016.8 0.0
26/05:00pm 19.2 - - - - SE 20 26 11 14 1017.1 1016.5 0.0
26/04:30pm 19.6 - - - - SE 19 30 10 16 1017.0 1016.4 0.0
26/04:00pm 20.1 - - - - SE 20 28 11 15 1016.9 1016.3 0.0
26/03:30pm 20.8 - - - - SE 19 24 10 13 1016.9 1016.3 0.0
26/03:00pm 20.8 - - - - SE 20 28 11 15 1017.0 1016.4 0.0
26/02:30pm 21.9 - - - - SE 19 28 10 15 1017.2 1016.6 0.0
26/02:00pm 21.6 - - - - SE 17 24 9 13 1017.4 1016.8 0.0
26/01:30pm 21.3 - - - - SE 19 28 10 15 1017.4 1016.8 0.0
26/01:00pm 21.2 - - - - SSE 20 28 11 15 1017.6 1017.0 0.0
26/12:30pm 21.6 - - - - SSE 19 24 10 13 1018.0 1017.4 0.0
26/12:00pm 21.5 - - - - SSE 19 30 10 16 1018.3 1017.8 0.0
26/11:30am 21.8 - - - - SE 19 26 10 14 1018.8 1018.3 0.0
26/11:00am 21.6 - - - - SSE 19 26 10 14 1018.9 1018.4 0.0
26/10:30am 21.6 - - - - SSE 20 24 11 13 1019.1 1018.6 0.0
26/10:00am 21.5 - - - - SSE 19 24 10 13 1019.2 1018.7 0.0
26/09:30am 21.1 - - - - SSE 17 24 9 13 1019.3 1018.8 0.0
26/09:00am 20.8 - - - - SSE 17 22 9 12 1019.5 1019.0 0.4
26/08:30am 19.9 - - - - SSE 15 20 8 11 1019.4 1018.9 0.4
26/08:00am 19.6 - - - - SSE 13 17 7 9 1019.3 1018.8 0.4
26/07:30am 19.0 - - - - SSE 11 15 6 8 1019.2 1018.7 0.4
26/07:00am 18.7 - - - - SE 11 15 6 8 1018.9 1018.4 0.4
26/06:30am 18.6 - - - - SE 11 15 6 8 1018.7 1018.2 0.4
26/06:00am 18.6 - - - - ESE 9 13 5 7 1018.3 1017.8 0.4
26/05:30am 18.4 - - - - SE 11 15 6 8 1018.0 1017.4 0.4
26/05:00am 18.1 - - - - SE 11 13 6 7 1017.8 1017.2 0.2
26/04:30am 18.1 - - - - SSE 13 15 7 8 1017.7 1017.1 0.2
26/04:00am 18.2 - - - - SSE 13 17 7 9 1017.7 1017.1 0.2
26/03:30am 18.3 - - - - SSE 13 15 7 8 1017.8 1017.2 0.2
26/03:00am 18.5 - - - - SSE 15 19 8 10 1017.9 1017.3 0.2
26/02:30am 18.4 - - - - SSE 15 19 8 10 1017.9 1017.3 0.2
26/02:00am 18.6 - - - - SSE 13 15 7 8 1018.2 1017.7 0.2
26/01:30am 18.5 - - - - SSE 13 17 7 9 1018.5 1018.0 0.2
26/01:00am 18.6 - - - - SSE 11 15 6 8 1018.6 1018.1 0.2
26/12:30am 18.8 - - - - SE 13 15 7 8 1018.8 1018.3 0.2
26/12:00am 19.0 - - - - SE 15 19 8 10 1018.8 1018.3 0.2
 
Date/Time
EST
Temp
°C
App
Temp
°C
Dew
Point
°C
Rel
Hum
%
Delta-T
°C
Wind Press
QNH
hPa
Press
MSL
hPa
Rain since
9am
mm
Dir  Spd
km/h
Gust
km/h
Spd
kts
Gust
kts
25/11:30pm 18.9 - - - - ESE 13 17 7 9 1018.8 1018.3 0.2
25/11:00pm 19.0 - - - - SE 15 19 8 10 1018.7 1018.2 0.2
25/10:30pm 19.1 - - - - SE 15 19 8 10 1018.8 1018.3 0.2
25/10:00pm 19.1 - - - - ESE 13 19 7 10 1018.8 1018.3 0.2
25/09:30pm 19.2 - - - - ESE 13 17 7 9 1018.8 1018.3 0.2
25/09:00pm 19.2 - - - - ESE 13 17 7 9 1018.7 1018.2 0.2
25/08:30pm 19.3 - - - - ESE 11 17 6 9 1018.5 1018.0 0.2
25/08:00pm 19.3 - - - - ESE 11 15 6 8 1018.4 1017.9 0.2
25/07:30pm 19.2 - - - - SE 13 17 7 9 1018.2 1017.7 0.2
25/07:00pm 19.1 - - - - SE 11 15 6 8 1017.9 1017.3 0.2
25/06:30pm 19.1 - - - - SSE 13 17 7 9 1017.6 1017.0 0.2
25/06:00pm 19.2 - - - - SE 13 17 7 9 1017.3 1016.7 0.2
25/05:30pm 19.7 - - - - SE 13 17 7 9 1017.0 1016.4 0.2
25/05:00pm 20.4 - - - - SE 11 17 6 9 1016.8 1016.2 0.2
25/04:30pm 21.2 - - - - SE 13 20 7 11 1016.6 1016.0 0.2
25/04:00pm 21.5 - - - - ESE 15 19 8 10 1016.3 1015.7 0.2
25/03:30pm 21.6 - - - - ESE 15 20 8 11 1016.1 1015.5 0.2
25/03:00pm 22.0 - - - - SE 15 19 8 10 1016.2 1015.6 0.2

Other Formats:

Comma delimited format used in spreadsheet applications
http://www.bom.gov.au/fwo/IDQ60801/IDQ60801.94372.axf

JavaScript Object Notation format (JSON) in row-major order
http://www.bom.gov.au/fwo/IDQ60801/IDQ60801.94372.json